Terminal Aerodrome Forecast
Issued by NWS

Home | Current Version | Previous Version | Graphics & Text | Print | Product List | Glossary On
Versions: 1 2 3 4 5 6 7 8 9 10 11 12 13 14 15
822
FTUS43 KMPX 261720
TAFRNH
TAF
KRNH 261720Z 2618/2718 23009KT P6SM SCT120 SCT250
     FM270500 20003KT P6SM BKN100 BKN250
     FM271500 VRB03KT P6SM SCT040 BKN100=

USA.gov is the U.S. government's official web portal to all federal, state and local government web resources and services.